首页
METAR-TAF:

METAR-TAF

机场 :

Odiham, 英格兰

纬度: 51-14N, 经度: 000-57W, 海拔: 123米

当前天气观测

该预报发布于1小时和8分钟前的09:50 UTC
风速6节,风向
温度 18°C
湿度 88%
气压 1014 hPa
能見度: 8000
阴天层高于600英尺

METAR: EGVO 140950Z 01006KT 8000 HZ OVC006 18/16 Q1014 RMK YLO1

时间: 11:58 (10:58 UTC)

预报

该预报发布于3小时和3分钟前的07:55 UTC
预报有效从14日的 09点(UTC)到 14日的 21点(UTC)
风速6节,风向
能見度: 5000
多云层高于600英尺
轻雾
成为
从 14日的 09点(UTC)到 14日的 11点(UTC)
能見度: 8000
多云层高于1200英尺
几率 30%
从 14日的 09点(UTC)到 14日的 10点(UTC)
能見度: 4000
多云层高于300英尺
小毛毛雨
成为
从 14日的 11点(UTC)到 14日的 14点(UTC)
多云层高于1800英尺
几率 30% :
短暂存在
从 14日的 12点(UTC)到 14日的 20点(UTC)
能見度: 4000
多云层高于3000英尺, 积雨云.
阵雨
几率 40%
从 14日的 18点(UTC)到 14日的 21点(UTC)
散云层高于3000英尺

TAF: EGVO 140755Z 1409/1421 01006KT 5000 BR BKN006 BECMG 1409/1411 8000 HZ BKN012 PROB30 1409/1410 4000 -DZ BKN003 BECMG 1411/1414 BKN018 PROB30 TEMPO 1412/1420 4000 SHRA BKN030CB PROB40 1418/1421 SCT030

超过4000个机场的气象观测和天气预报(METAR&TAF报告)。

可查询的气象台以黄色和红色小点在地图上表示。

将鼠标移到小点上方,可查看气象台名称。

然后点击查看天气观测和预报。

如需切换地图:点击带黑十字的绿色按钮放大地图;点击带横线的绿色按钮缩小地图;或者点击绿色箭头查看邻近地区的地图。


METAR-TAF: